createdAt,value
2023-03-21T00:00:45.578Z,100339.94
2023-03-21T00:03:24.667Z,100331.28
2023-03-21T00:05:55.501Z,100337.33
2023-03-21T00:08:28.262Z,100337.33
2023-03-21T00:10:58.874Z,100331.28
2023-03-21T00:13:31.957Z,100327.80
2023-03-21T00:16:10.216Z,100338.20
2023-03-21T00:18:54.801Z,100328.69
2023-03-21T00:24:16.663Z,100326.97
2023-03-21T00:26:46.003Z,100326.98
2023-03-21T00:29:16.092Z,100327.84
2023-03-21T00:31:44.986Z,100323.50
2023-03-21T00:34:14.408Z,100313.12
2023-03-21T00:36:43.360Z,100318.33
2023-03-21T00:39:13.599Z,100318.33
2023-03-21T00:41:43.595Z,100316.60
2023-03-21T00:44:15.120Z,100320.91
2023-03-21T00:47:00.553Z,100319.20
2023-03-21T00:49:37.936Z,100315.72
2023-03-21T00:52:18.331Z,100320.92
2023-03-21T00:54:54.485Z,100321.78
2023-03-21T00:57:37.586Z,100320.92
2023-03-21T01:00:11.392Z,100314.87
2023-03-21T01:03:08.592Z,100315.72
2023-03-21T01:06:01.716Z,100312.27
2023-03-21T01:08:44.568Z,100312.27
2023-03-21T01:11:22.618Z,100313.15
2023-03-21T01:14:04.287Z,100312.27
2023-03-21T01:16:40.684Z,100313.12
2023-03-21T01:19:23.906Z,100304.48
2023-03-21T01:22:02.274Z,100308.80
2023-03-21T01:24:32.477Z,100300.16
2023-03-21T01:27:03.482Z,100304.47
2023-03-21T01:29:32.652Z,100296.70
2023-03-21T01:32:04.526Z,100302.75
2023-03-21T01:34:33.384Z,100301.03
2023-03-21T01:37:06.276Z,100300.17
2023-03-21T01:39:41.876Z,100296.72
2023-03-21T01:42:14.024Z,100293.23
2023-03-21T01:44:56.737Z,100293.27
2023-03-21T01:47:27.057Z,100286.32
2023-03-21T01:50:15.241Z,100291.54
2023-03-21T01:53:22.202Z,100293.27
2023-03-21T01:55:51.415Z,100277.69
2023-03-21T01:58:44.717Z,100279.44
2023-03-21T02:01:45.603Z,100278.56
2023-03-21T02:04:16.380Z,100279.41
2023-03-21T02:06:52.380Z,100281.14
2023-03-21T02:09:45.212Z,100287.21
2023-03-21T02:12:18.608Z,100287.21
2023-03-21T02:14:49.942Z,100283.77
2023-03-21T02:17:49.600Z,100285.48
2023-03-21T02:21:01.104Z,100277.69
2023-03-21T02:24:09.447Z,100278.57
2023-03-21T02:27:04.077Z,100291.53
2023-03-21T02:30:08.768Z,100291.53
2023-03-21T02:33:09.422Z,100284.61
2023-03-21T02:35:56.785Z,100288.95
2023-03-21T02:38:36.116Z,100288.08
2023-03-21T02:41:18.160Z,100286.34
2023-03-21T02:43:56.532Z,100277.69
2023-03-21T02:46:43.948Z,100282.91
2023-03-21T02:49:22.201Z,100286.33
2023-03-21T02:51:51.816Z,100282.03
2023-03-21T02:54:41.904Z,100289.80
2023-03-21T02:57:19.187Z,100288.94
2023-03-21T02:59:55.435Z,100292.41
2023-03-21T03:02:32.985Z,100294.13
2023-03-21T03:05:20.697Z,100294.13
2023-03-21T03:08:06.613Z,100298.45
2023-03-21T03:10:56.305Z,100303.63
2023-03-21T03:13:43.824Z,100301.05
2023-03-21T03:16:27.002Z,100303.64
2023-03-21T03:18:58.095Z,100306.23
2023-03-21T03:21:32.503Z,100305.39
2023-03-21T03:24:09.383Z,100301.91
2023-03-21T03:26:45.440Z,100302.77
2023-03-21T03:29:16.674Z,100300.19
2023-03-21T03:31:51.130Z,100311.42
2023-03-21T03:34:21.518Z,100303.64
2023-03-21T03:36:56.445Z,100301.92
2023-03-21T03:39:33.602Z,100317.49
2023-03-21T03:42:18.523Z,100310.57
2023-03-21T03:44:59.296Z,100311.44
2023-03-21T03:47:37.969Z,100307.95
2023-03-21T03:50:18.185Z,100303.66
2023-03-21T03:52:56.516Z,100311.42
2023-03-21T03:55:33.829Z,100314.87
2023-03-21T03:58:21.731Z,100314.89
2023-03-21T04:00:56.220Z,100313.14
2023-03-21T04:03:25.666Z,100313.14
2023-03-21T04:05:54.894Z,100310.55
2023-03-21T04:08:24.086Z,100308.81
2023-03-21T04:10:55.640Z,100311.41
2023-03-21T04:13:25.515Z,100307.97
2023-03-21T04:16:12.283Z,100314.02
2023-03-21T04:18:41.992Z,100303.64
2023-03-21T04:21:14.052Z,100311.41
2023-03-21T04:23:43.187Z,100307.11
2023-03-21T04:26:12.797Z,100310.57
2023-03-21T04:28:46.131Z,100313.16
2023-03-21T04:31:35.453Z,100315.75
2023-03-21T04:34:12.037Z,100311.41
2023-03-21T04:36:45.330Z,100313.16
2023-03-21T04:39:15.062Z,100310.56
2023-03-21T04:41:46.312Z,100310.56
2023-03-21T04:44:18.476Z,100310.56
2023-03-21T04:46:51.578Z,100306.22
2023-03-21T04:49:24.396Z,100304.52
2023-03-21T04:51:55.942Z,100309.69
2023-03-21T04:54:26.772Z,100318.36
2023-03-21T04:57:00.179Z,100320.95
2023-03-21T04:59:29.564Z,100324.39
2023-03-21T05:01:59.222Z,100320.09
2023-03-21T05:04:30.474Z,100319.22
2023-03-21T05:07:03.279Z,100327.84
2023-03-21T05:09:32.364Z,100325.25
2023-03-21T05:12:01.965Z,100332.17
2023-03-21T05:14:32.295Z,100329.58
2023-03-21T05:17:04.767Z,100333.92
2023-03-21T05:19:34.959Z,100333.04
2023-03-21T05:22:08.012Z,100332.17
2023-03-21T05:24:38.674Z,100331.30
2023-03-21T05:27:08.801Z,100338.25
2023-03-21T05:29:42.141Z,100334.80
2023-03-21T05:32:12.388Z,100334.77
2023-03-21T05:34:41.323Z,100335.64
2023-03-21T05:37:12.276Z,100337.38
2023-03-21T05:39:47.774Z,100338.25
2023-03-21T05:42:23.511Z,100333.04
2023-03-21T05:44:53.865Z,100344.29
2023-03-21T05:47:28.154Z,100343.42
2023-03-21T05:49:57.354Z,100346.88
2023-03-21T05:52:28.112Z,100349.50
2023-03-21T05:54:56.961Z,100342.56
2023-03-21T05:57:28.356Z,100347.76
2023-03-21T06:00:03.786Z,100359.02
2023-03-21T06:02:45.336Z,100364.19
2023-03-21T06:05:43.315Z,100359.01
2023-03-21T06:08:19.422Z,100365.93
2023-03-21T06:10:48.403Z,100373.72
2023-03-21T06:13:17.592Z,100370.25
2023-03-21T06:15:46.513Z,100371.12
2023-03-21T06:18:19.005Z,100371.99
2023-03-21T06:21:08.118Z,100372.00
2023-03-21T06:23:37.066Z,100368.52
2023-03-21T06:26:09.330Z,100366.80
2023-03-21T06:28:39.771Z,100376.31
2023-03-21T06:31:09.073Z,100371.97
2023-03-21T06:33:38.208Z,100384.98
2023-03-21T06:36:12.996Z,100385.84
2023-03-21T06:38:42.038Z,100381.49
2023-03-21T06:41:12.798Z,100386.69
2023-03-21T06:43:48.690Z,100383.25
2023-03-21T06:46:17.807Z,100384.11
2023-03-21T06:48:46.935Z,100384.10
2023-03-21T06:51:16.636Z,100384.10
2023-03-21T06:53:58.681Z,100386.69
2023-03-21T06:56:41.107Z,100391.89
2023-03-21T06:59:12.139Z,100391.90
2023-03-21T07:01:53.057Z,100395.36
2023-03-21T07:04:22.741Z,100393.61
2023-03-21T07:06:51.881Z,100402.27
2023-03-21T07:09:27.494Z,100400.53
2023-03-21T07:11:59.101Z,100397.06
2023-03-21T07:14:34.528Z,100397.92
2023-03-21T07:17:03.631Z,100403.14
2023-03-21T07:19:32.550Z,100398.80
2023-03-21T07:22:02.388Z,100403.98
2023-03-21T07:24:31.461Z,100413.52
2023-03-21T07:27:01.120Z,100411.77
2023-03-21T07:29:30.016Z,100414.35
2023-03-21T07:32:02.007Z,100410.91
2023-03-21T07:34:33.290Z,100408.30
2023-03-21T07:37:06.486Z,100415.22
2023-03-21T07:39:35.914Z,100410.00
2023-03-21T07:42:05.157Z,100405.63
2023-03-21T07:44:39.898Z,100409.06
2023-03-21T07:47:09.103Z,100398.66
2023-03-21T07:49:38.223Z,100409.87
2023-03-21T07:52:07.371Z,100408.09
2023-03-21T07:54:36.370Z,100405.48
2023-03-21T07:57:05.276Z,100410.66
2023-03-21T07:59:34.057Z,100411.54
2023-03-21T08:02:03.015Z,100411.52
2023-03-21T08:04:35.069Z,100416.66
2023-03-21T08:07:03.960Z,100414.02
2023-03-21T08:09:35.680Z,100415.75
2023-03-21T08:12:07.792Z,100420.95
2023-03-21T08:14:37.181Z,100420.89
2023-03-21T08:17:06.461Z,100422.57
2023-03-21T08:19:36.942Z,100421.67
2023-03-21T08:22:06.263Z,100422.47
2023-03-21T08:24:35.106Z,100422.41
2023-03-21T08:27:04.013Z,100418.94
2023-03-21T08:29:39.869Z,100416.25
2023-03-21T08:32:08.859Z,100420.55
2023-03-21T08:34:37.669Z,100420.52
2023-03-21T08:37:06.580Z,100426.54
2023-03-21T08:39:35.605Z,100418.61
2023-03-21T08:42:05.137Z,100419.28
2023-03-21T08:44:35.303Z,100423.47
2023-03-21T08:47:04.185Z,100432.04
2023-03-21T08:49:33.042Z,100430.23
2023-03-21T08:52:02.427Z,100439.73
2023-03-21T08:54:31.775Z,100440.64
2023-03-21T08:57:01.440Z,100434.65
2023-03-21T08:59:30.422Z,100440.84
2023-03-21T09:02:02.925Z,100438.21
2023-03-21T09:04:32.573Z,100442.45
2023-03-21T09:07:02.398Z,100444.09
2023-03-21T09:09:32.068Z,100445.80
2023-03-21T09:12:03.503Z,100444.06
2023-03-21T09:14:35.476Z,100443.27
2023-03-21T09:17:04.458Z,100450.27
2023-03-21T09:19:35.996Z,100446.76
2023-03-21T09:22:04.854Z,100448.48
2023-03-21T09:24:35.015Z,100450.22
2023-03-21T09:27:03.935Z,100452.83
2023-03-21T09:29:33.631Z,100455.36
2023-03-21T09:32:03.546Z,100458.73
2023-03-21T09:34:32.826Z,100459.58
2023-03-21T09:37:02.921Z,100458.81
2023-03-21T09:39:32.981Z,100464.16
2023-03-21T09:42:18.832Z,100459.89
2023-03-21T09:45:00.870Z,100467.81
2023-03-21T09:47:37.247Z,100459.19
2023-03-21T09:50:17.394Z,100466.09
2023-03-21T09:52:50.136Z,100465.28
2023-03-21T09:55:22.025Z,100467.09
2023-03-21T09:58:00.180Z,100466.31
2023-03-21T10:00:34.598Z,100467.22
2023-03-21T10:03:09.588Z,100473.34
2023-03-21T10:05:44.149Z,100470.73
2023-03-21T10:08:21.877Z,100467.23
2023-03-21T10:10:55.316Z,100473.25
2023-03-21T10:13:27.719Z,100475.00
2023-03-21T10:15:58.433Z,100469.80
2023-03-21T10:18:29.703Z,100475.86
2023-03-21T10:20:59.106Z,100475.86
2023-03-21T10:23:30.101Z,100475.02
2023-03-21T10:26:02.247Z,100479.38
2023-03-21T10:31:33.090Z,100480.11
2023-03-21T10:34:09.745Z,100479.15
2023-03-21T10:36:39.939Z,100482.67
2023-03-21T10:39:19.469Z,100482.66
2023-03-21T10:41:48.260Z,100486.13
2023-03-21T10:44:18.124Z,100483.63
2023-03-21T10:46:56.497Z,100485.34
2023-03-21T10:49:56.407Z,100481.84
2023-03-21T10:52:30.460Z,100490.52
2023-03-21T10:55:16.649Z,100494.00
2023-03-21T10:57:46.908Z,100490.54
2023-03-21T11:00:22.382Z,100488.84
2023-03-21T11:02:53.800Z,100486.34
2023-03-21T11:05:27.204Z,100489.02
2023-03-21T11:08:06.438Z,100482.98
2023-03-21T11:10:38.322Z,100475.98
2023-03-21T11:13:19.213Z,100484.59
2023-03-21T11:15:54.766Z,100483.56
2023-03-21T11:18:25.882Z,100477.28
2023-03-21T11:20:56.876Z,100477.81
2023-03-21T11:23:29.943Z,100478.20
2023-03-21T11:26:00.772Z,100472.27
2023-03-21T11:28:37.129Z,100470.72
2023-03-21T11:31:08.728Z,100462.31
2023-03-21T11:33:43.965Z,100464.55
2023-03-21T11:36:33.744Z,100462.95
2023-03-21T11:39:15.448Z,100456.23
2023-03-21T11:41:51.183Z,100459.16
2023-03-21T11:44:30.282Z,100459.66
2023-03-21T11:47:02.981Z,100459.20
2023-03-21T11:49:32.167Z,100457.69
2023-03-21T11:52:21.925Z,100464.81
2023-03-21T11:55:07.024Z,100463.22
2023-03-21T11:57:44.111Z,100459.86
2023-03-21T12:00:20.361Z,100460.91
2023-03-21T12:03:15.302Z,100461.88
2023-03-21T12:05:53.161Z,100465.37
2023-03-21T12:08:32.805Z,100461.09
2023-03-21T12:11:13.261Z,100463.78
2023-03-21T12:13:53.522Z,100455.14
2023-03-21T12:16:40.723Z,100455.11
2023-03-21T12:19:34.114Z,100455.92
2023-03-21T12:22:13.600Z,100455.80
2023-03-21T12:24:50.835Z,100457.48
2023-03-21T12:27:32.931Z,100450.43
2023-03-21T12:30:36.694Z,100455.62
2023-03-21T12:33:24.364Z,100441.59
2023-03-21T12:36:10.702Z,100441.48
2023-03-21T12:38:48.192Z,100451.11
2023-03-21T12:41:26.828Z,100441.55
2023-03-21T12:44:02.803Z,100439.76
2023-03-21T12:46:40.065Z,100445.80
2023-03-21T12:49:16.352Z,100441.41
2023-03-21T12:51:49.463Z,100440.47
2023-03-21T12:54:27.408Z,100435.24
2023-03-21T12:57:02.854Z,100437.81
2023-03-21T12:59:38.295Z,100435.28
2023-03-21T13:02:18.775Z,100440.60
2023-03-21T13:04:55.660Z,100449.42
2023-03-21T13:07:26.635Z,100452.94
2023-03-21T13:09:57.392Z,100446.02
2023-03-21T13:12:41.791Z,100450.33
2023-03-21T13:15:24.318Z,100449.42
2023-03-21T13:18:01.071Z,100445.86
2023-03-21T13:20:43.514Z,100441.42
2023-03-21T13:23:17.964Z,100435.20
2023-03-21T13:25:48.848Z,100429.73
2023-03-21T13:28:22.430Z,100432.95
2023-03-21T13:30:52.135Z,100431.75
2023-03-21T13:33:29.603Z,100428.71
2023-03-21T13:36:06.651Z,100425.03
2023-03-21T13:38:39.723Z,100428.35
2023-03-21T13:41:13.068Z,100427.60
2023-03-21T13:43:45.758Z,100426.09
2023-03-21T13:46:46.951Z,100431.66
2023-03-21T13:49:30.568Z,100424.91
2023-03-21T13:52:02.252Z,100429.41
2023-03-21T13:54:50.443Z,100425.08
2023-03-21T13:57:40.010Z,100426.77
2023-03-21T14:00:19.208Z,100424.19
2023-03-21T14:03:00.598Z,100427.69
2023-03-21T14:05:29.753Z,100423.34
2023-03-21T14:08:12.660Z,100419.16
2023-03-21T14:10:48.937Z,100428.77
2023-03-21T14:13:21.122Z,100424.27
2023-03-21T14:15:56.266Z,100432.14
2023-03-21T14:18:51.744Z,100430.45
2023-03-21T14:21:25.149Z,100428.80
2023-03-21T14:24:01.910Z,100433.26
2023-03-21T14:26:34.047Z,100427.19
2023-03-21T14:29:09.692Z,100429.87
2023-03-21T14:31:46.963Z,100431.61
2023-03-21T14:34:17.168Z,100430.72
2023-03-21T14:36:56.863Z,100429.80
2023-03-21T14:39:30.398Z,100416.73
2023-03-21T14:42:04.393Z,100425.53
2023-03-21T14:44:53.582Z,100419.50
2023-03-21T14:47:25.108Z,100416.92
2023-03-21T14:49:55.884Z,100419.53
2023-03-21T14:52:29.966Z,100425.64
2023-03-21T14:54:59.890Z,100419.64
2023-03-21T14:57:31.227Z,100418.05
2023-03-21T15:00:12.001Z,100419.04
2023-03-21T15:02:42.977Z,100416.53
2023-03-21T15:05:18.661Z,100418.36
2023-03-21T15:07:56.045Z,100418.42
2023-03-21T15:10:27.680Z,100411.56
2023-03-21T15:12:58.673Z,100415.12
2023-03-21T15:15:30.228Z,100413.42
2023-03-21T15:18:06.459Z,100413.50
2023-03-21T15:20:38.206Z,100414.44
2023-03-21T15:23:12.712Z,100411.89
2023-03-21T15:25:43.497Z,100409.28
2023-03-21T15:28:14.518Z,100414.50
2023-03-21T15:30:50.611Z,100407.55
2023-03-21T15:33:23.596Z,100411.06
2023-03-21T15:35:55.991Z,100409.39
2023-03-21T15:38:33.257Z,100414.66
2023-03-21T15:41:16.711Z,100415.56
2023-03-21T15:43:46.882Z,100415.63
2023-03-21T15:46:17.574Z,100412.23
2023-03-21T15:48:46.760Z,100417.55
2023-03-21T15:51:21.534Z,100412.39
2023-03-21T15:53:53.891Z,100410.70
2023-03-21T15:56:34.225Z,100410.75
2023-03-21T15:59:06.041Z,100416.05
2023-03-21T16:01:38.428Z,100414.36
2023-03-21T16:04:10.507Z,100417.03
2023-03-21T16:06:52.249Z,100407.58
2023-03-21T16:09:25.690Z,100411.96
2023-03-21T16:11:58.341Z,100412.88
2023-03-21T16:14:28.039Z,100411.17
2023-03-21T16:17:13.861Z,100405.14
2023-03-21T16:19:43.842Z,100405.22
2023-03-21T16:22:15.364Z,100410.45
2023-03-21T16:24:44.648Z,100413.11
2023-03-21T16:27:17.161Z,100413.14
2023-03-21T16:29:46.518Z,100409.69
2023-03-21T16:32:16.935Z,100406.25
2023-03-21T16:34:46.176Z,100411.51
2023-03-21T16:37:18.238Z,100411.54
2023-03-21T16:39:47.274Z,100409.82
2023-03-21T16:42:16.160Z,100404.69
2023-03-21T16:44:45.183Z,100409.91
2023-03-21T16:47:18.040Z,100416.88
2023-03-21T16:49:47.785Z,100415.19
2023-03-21T16:52:17.661Z,100416.95
2023-03-21T16:54:46.591Z,100428.22
2023-03-21T16:57:27.661Z,100419.59
2023-03-21T16:59:57.058Z,100430.84
2023-03-21T17:02:26.957Z,100427.37
2023-03-21T17:04:57.719Z,100431.70
2023-03-21T17:07:27.003Z,100434.28
2023-03-21T17:09:57.485Z,100443.81
2023-03-21T17:12:26.586Z,100439.45
2023-03-21T17:14:55.795Z,100444.61
2023-03-21T17:17:24.923Z,100446.27
2023-03-21T17:19:54.004Z,100447.92
2023-03-21T17:22:22.929Z,100453.91
2023-03-21T17:24:52.039Z,100451.25
2023-03-21T17:27:20.924Z,100456.38
2023-03-21T17:29:50.259Z,100457.16
2023-03-21T17:32:19.755Z,100461.39
2023-03-21T17:34:52.580Z,100462.22
2023-03-21T17:37:25.485Z,100463.89
2023-03-21T17:39:55.500Z,100457.83
2023-03-21T17:42:24.502Z,100463.02
2023-03-21T17:44:53.750Z,100466.38
2023-03-21T17:47:25.107Z,100473.27
2023-03-21T17:49:54.452Z,100480.08
2023-03-21T17:52:24.712Z,100479.11
2023-03-21T17:54:53.891Z,100480.73
2023-03-21T17:57:22.792Z,100473.77
2023-03-21T17:59:52.501Z,100478.05
2023-03-21T18:02:21.403Z,100491.80
2023-03-21T18:04:50.430Z,100488.27
2023-03-21T18:07:28.691Z,100486.48
2023-03-21T18:10:14.289Z,100494.11
2023-03-21T18:12:43.581Z,100494.86
2023-03-21T18:15:17.046Z,100500.02
2023-03-21T18:17:46.195Z,100508.58
2023-03-21T18:20:19.896Z,100509.42
2023-03-21T18:22:52.094Z,100511.90
2023-03-21T18:25:21.572Z,100505.77
2023-03-21T18:28:09.949Z,100509.92
2023-03-21T18:31:00.950Z,100510.58
2023-03-21T18:33:31.360Z,100513.00
2023-03-21T18:36:07.016Z,100511.19
2023-03-21T18:38:37.408Z,100514.55
2023-03-21T18:41:08.112Z,100517.06
2023-03-21T18:46:30.304Z,100510.85
2023-03-21T18:49:27.052Z,100515.95
2023-03-21T18:51:51.990Z,100514.20
2023-03-21T18:54:22.909Z,100511.61
2023-03-21T18:59:40.929Z,100515.06
2023-03-21T19:02:16.325Z,100512.48
2023-03-21T19:04:46.001Z,100515.05
2023-03-21T19:07:15.167Z,100512.45
2023-03-21T19:10:05.853Z,100509.81
2023-03-21T19:12:33.611Z,100509.73
2023-03-21T19:15:05.445Z,100513.98
2023-03-21T19:20:23.880Z,100508.61
2023-03-21T19:22:53.596Z,100512.80
2023-03-21T19:25:22.630Z,100504.93
2023-03-21T19:27:52.320Z,100499.74
2023-03-21T19:30:21.551Z,100512.52
2023-03-21T19:32:50.386Z,100513.25
2023-03-21T19:35:19.609Z,100513.17
2023-03-21T19:37:48.410Z,100516.58
2023-03-21T19:40:21.032Z,100517.34
2023-03-21T19:42:50.155Z,100514.61
2023-03-21T19:45:22.210Z,100513.67
2023-03-21T19:47:51.096Z,100511.02
2023-03-21T19:50:57.910Z,100517.02
2023-03-21T19:53:09.207Z,100519.53
2023-03-21T19:55:38.309Z,100519.45
2023-03-21T19:58:12.094Z,100513.43
2023-03-21T20:00:41.227Z,100528.84
2023-03-21T20:03:10.432Z,100521.92
2023-03-21T20:05:41.842Z,100523.58
2023-03-21T20:08:12.765Z,100527.83
2023-03-21T20:10:44.949Z,100522.58
2023-03-21T20:13:14.422Z,100521.66
2023-03-21T20:15:48.097Z,100531.05
2023-03-21T20:18:16.573Z,100525.88
2023-03-21T20:20:45.492Z,100532.66
2023-03-21T20:23:17.153Z,100536.05
2023-03-21T20:25:47.701Z,100538.59
2023-03-21T20:28:25.496Z,100537.67
2023-03-21T20:30:57.794Z,100542.75
2023-03-21T20:33:27.819Z,100537.49
2023-03-21T20:38:51.454Z,100540.62
2023-03-21T20:41:20.949Z,100540.55
2023-03-21T20:46:43.113Z,100538.60
2023-03-21T20:49:13.191Z,100536.73
2023-03-21T20:52:44.646Z,100532.39
2023-03-21T20:54:31.746Z,100540.03
2023-03-21T20:57:04.196Z,100527.16
2023-03-21T20:59:33.980Z,100534.88
2023-03-21T21:02:05.107Z,100522.76
2023-03-21T21:04:49.826Z,100521.84
2023-03-21T21:07:27.120Z,100524.40
2023-03-21T21:09:56.264Z,100514.91
2023-03-21T21:12:26.973Z,100515.68
2023-03-21T21:14:55.995Z,100520.78
2023-03-21T21:20:17.235Z,100526.56
2023-03-21T21:22:59.436Z,100525.71
2023-03-21T21:25:33.137Z,100532.46
2023-03-21T21:28:02.358Z,100526.34
2023-03-21T21:30:33.686Z,100523.69
2023-03-21T21:33:02.448Z,100518.45
2023-03-21T21:35:33.076Z,100515.83
2023-03-21T21:38:01.877Z,100521.75
2023-03-21T21:40:31.158Z,100523.47
2023-03-21T21:43:03.427Z,100515.72
2023-03-21T21:45:32.369Z,100524.27
2023-03-21T21:48:01.601Z,100511.34
2023-03-21T21:50:30.627Z,100515.58
2023-03-21T21:53:03.068Z,100518.95
2023-03-21T21:55:33.523Z,100514.58
2023-03-21T21:58:03.417Z,100523.06
2023-03-21T22:00:33.972Z,100518.69
2023-03-21T22:03:02.806Z,100523.62
2023-03-21T22:05:32.089Z,100521.80
2023-03-21T22:08:00.856Z,100524.33
2023-03-21T22:10:32.439Z,100531.13
2023-03-21T22:13:01.437Z,100532.79
2023-03-21T22:15:30.395Z,100529.30
2023-03-21T22:17:59.260Z,100526.72
2023-03-21T22:20:28.049Z,100527.52
2023-03-21T22:22:59.003Z,100533.46
2023-03-21T22:25:28.511Z,100528.23
2023-03-21T22:27:57.293Z,100534.20
2023-03-21T22:30:26.538Z,100536.73
2023-03-21T22:33:08.460Z,100528.08
2023-03-21T22:35:37.765Z,100519.45
2023-03-21T22:38:08.218Z,100521.09
2023-03-21T22:40:37.506Z,100519.35
2023-03-21T22:43:08.298Z,100510.72
2023-03-21T22:45:37.505Z,100513.23
2023-03-21T22:48:08.985Z,100519.13
2023-03-21T22:50:38.399Z,100516.50
2023-03-21T22:53:07.818Z,100519.83
2023-03-21T22:55:37.838Z,100526.66
2023-03-21T22:58:07.086Z,100517.11
2023-03-21T23:00:38.530Z,100514.44
2023-03-21T23:03:08.238Z,100518.66
2023-03-21T23:05:40.633Z,100513.45
2023-03-21T23:08:09.887Z,100519.42
2023-03-21T23:10:39.478Z,100519.33
2023-03-21T23:13:08.979Z,100509.02
2023-03-21T23:15:39.482Z,100514.98
2023-03-21T23:18:09.369Z,100517.48
2023-03-21T23:20:40.568Z,100521.73
2023-03-21T23:23:09.704Z,100513.92
2023-03-21T23:25:42.319Z,100518.04
2023-03-21T23:28:12.052Z,100523.05
2023-03-21T23:30:41.333Z,100518.66
2023-03-21T23:33:13.864Z,100516.85
2023-03-21T23:35:43.121Z,100516.85
2023-03-21T23:38:12.574Z,100511.72
2023-03-21T23:40:41.619Z,100507.41
2023-03-21T23:43:10.856Z,100512.54
2023-03-21T23:45:41.471Z,100503.09
2023-03-21T23:48:10.620Z,100501.28
2023-03-21T23:50:41.332Z,100494.27
2023-03-21T23:53:10.285Z,100491.63
2023-03-21T23:55:41.359Z,100501.01
2023-03-21T23:58:13.944Z,100506.97
